createdAt,value
2022-12-18T00:02:07.774Z,24.35
2022-12-18T00:06:26.726Z,25.35
2022-12-18T00:10:44.701Z,30.42
2022-12-18T00:15:01.605Z,18.05
2022-12-18T00:19:18.831Z,25.40
2022-12-18T00:23:37.636Z,39.63
2022-12-18T00:27:55.007Z,50.70
2022-12-18T00:32:11.942Z,32.22
2022-12-18T00:36:34.764Z,19.67
2022-12-18T00:40:51.778Z,22.67
2022-12-18T00:45:12.853Z,22.42
2022-12-18T00:49:30.343Z,20.80
2022-12-18T00:53:47.400Z,29.55
2022-12-18T00:58:04.423Z,21.88
2022-12-18T01:02:21.588Z,21.05
2022-12-18T01:06:38.725Z,17.02
2022-12-18T01:10:55.711Z,22.30
2022-12-18T01:15:16.176Z,23.65
2022-12-18T01:19:33.185Z,20.83
2022-12-18T01:23:55.833Z,20.50
2022-12-18T01:28:12.651Z,19.50
2022-12-18T01:32:32.475Z,21.80
2022-12-18T01:36:49.625Z,23.85
2022-12-18T01:41:06.694Z,20.63
2022-12-18T01:45:32.881Z,26.80
2022-12-18T01:49:50.176Z,20.48
2022-12-18T01:54:07.039Z,21.08
2022-12-18T01:59:03.170Z,24.58
2022-12-18T02:03:20.088Z,20.73
2022-12-18T02:08:05.253Z,19.52
2022-12-18T02:12:30.095Z,20.52
2022-12-18T02:17:19.341Z,19.48
2022-12-18T02:21:53.221Z,17.98
2022-12-18T02:26:35.913Z,22.02
2022-12-18T02:30:57.465Z,26.55
2022-12-18T02:35:21.525Z,24.02
2022-12-18T02:39:41.363Z,27.40
2022-12-18T02:44:13.540Z,27.02
2022-12-18T02:48:36.184Z,23.52
2022-12-18T02:53:37.536Z,25.63
2022-12-18T02:58:26.086Z,25.65
2022-12-18T03:03:24.335Z,25.13
2022-12-18T03:07:56.549Z,19.95
2022-12-18T03:12:28.993Z,24.75
2022-12-18T03:16:48.063Z,24.38
2022-12-18T03:21:08.694Z,26.98
2022-12-18T03:25:27.933Z,41.58
2022-12-18T03:30:08.773Z,25.42
2022-12-18T03:34:33.387Z,30.75
2022-12-18T03:38:50.488Z,25.83
2022-12-18T03:43:26.614Z,25.55
2022-12-18T03:48:20.039Z,25.65
2022-12-18T03:52:46.578Z,26.48
2022-12-18T03:57:16.436Z,36.05
2022-12-18T04:01:38.453Z,28.25
2022-12-18T04:05:57.765Z,26.38
2022-12-18T04:10:16.882Z,32.72
2022-12-18T04:14:36.880Z,33.65
2022-12-18T04:18:54.428Z,29.92
2022-12-18T04:23:14.987Z,31.55
2022-12-18T04:27:31.999Z,31.25
2022-12-18T04:31:49.066Z,26.77
2022-12-18T04:36:06.537Z,34.20
2022-12-18T04:40:23.644Z,36.57
2022-12-18T04:44:40.447Z,35.83
2022-12-18T04:48:57.589Z,30.65
2022-12-18T04:53:14.424Z,30.92
2022-12-18T04:57:31.466Z,29.42
2022-12-18T05:01:48.469Z,30.20
2022-12-18T05:06:07.147Z,27.80
2022-12-18T05:10:24.161Z,35.03
2022-12-18T05:14:41.258Z,34.22
2022-12-18T05:18:58.221Z,31.45
2022-12-18T05:23:15.262Z,31.73
2022-12-18T05:27:32.093Z,36.38
2022-12-18T05:31:49.233Z,36.78
2022-12-18T05:36:09.052Z,33.45
2022-12-18T05:40:26.145Z,30.33
2022-12-18T05:44:44.086Z,33.75
2022-12-18T05:49:02.495Z,26.13
2022-12-18T05:57:38.635Z,32.75
2022-12-18T06:01:55.567Z,32.95
2022-12-18T06:06:20.631Z,34.22
2022-12-18T06:10:38.549Z,30.00
2022-12-18T06:14:55.461Z,26.45
2022-12-18T06:19:17.533Z,30.63
2022-12-18T06:23:34.691Z,29.63
2022-12-18T06:27:51.764Z,33.58
2022-12-18T06:32:08.902Z,40.03
2022-12-18T06:36:26.030Z,37.80
2022-12-18T06:40:42.921Z,33.47
2022-12-18T06:45:00.089Z,30.52
2022-12-18T06:49:17.176Z,30.10
2022-12-18T06:53:34.661Z,30.08
2022-12-18T06:57:51.580Z,36.53
2022-12-18T07:02:14.031Z,44.33
2022-12-18T07:06:30.975Z,35.92
2022-12-18T07:10:55.770Z,36.00
2022-12-18T07:15:13.336Z,39.15
2022-12-18T07:19:30.940Z,30.77
2022-12-18T07:23:49.415Z,37.92
2022-12-18T07:28:07.774Z,36.58
2022-12-18T07:32:25.676Z,43.80
2022-12-18T07:36:42.942Z,31.52
2022-12-18T07:41:04.436Z,30.17
2022-12-18T07:45:23.838Z,33.83
2022-12-18T07:49:40.782Z,38.13
2022-12-18T07:53:58.434Z,39.67
2022-12-18T07:58:15.349Z,36.97
2022-12-18T08:02:33.272Z,42.58
2022-12-18T08:06:50.121Z,35.42
2022-12-18T08:11:07.401Z,40.70
2022-12-18T08:15:24.709Z,39.08
2022-12-18T08:19:41.972Z,48.60
2022-12-18T08:24:01.846Z,57.50
2022-12-18T08:28:19.098Z,66.72
2022-12-18T08:32:35.980Z,56.47
2022-12-18T08:36:53.064Z,59.60
2022-12-18T08:41:13.174Z,81.82
2022-12-18T08:45:30.288Z,82.15
2022-12-18T08:49:47.185Z,93.60
2022-12-18T08:54:06.465Z,84.38
2022-12-18T08:58:24.062Z,59.45
2022-12-18T09:02:40.985Z,53.80
2022-12-18T09:06:58.182Z,56.75
2022-12-18T09:11:24.327Z,53.38
2022-12-18T09:15:47.198Z,44.80
2022-12-18T09:20:04.558Z,44.17
2022-12-18T09:24:21.705Z,37.33
2022-12-18T09:28:38.997Z,38.50
2022-12-18T09:32:56.930Z,38.95
2022-12-18T09:37:13.817Z,41.40
2022-12-18T09:41:44.466Z,36.97
2022-12-18T09:46:10.271Z,38.50
2022-12-18T09:50:40.474Z,45.47
2022-12-18T09:55:22.426Z,41.13
2022-12-18T09:59:44.451Z,36.63
2022-12-18T10:04:03.248Z,43.90
2022-12-18T10:08:34.918Z,35.55
2022-12-18T10:13:11.387Z,141.27
2022-12-18T10:18:02.577Z,43.38
2022-12-18T10:23:10.651Z,75.72
2022-12-18T10:27:29.645Z,48.00
2022-12-18T10:31:48.490Z,44.38
2022-12-18T10:36:07.336Z,38.35
2022-12-18T10:40:25.393Z,39.95
2022-12-18T10:44:44.245Z,36.65
2022-12-18T10:49:01.147Z,36.45
2022-12-18T10:53:29.830Z,42.10
2022-12-18T10:57:48.609Z,40.08
2022-12-18T11:07:10.645Z,38.55
2022-12-18T11:11:28.491Z,43.65
2022-12-18T11:15:47.241Z,53.77
2022-12-18T11:20:15.747Z,41.15
2022-12-18T11:24:36.703Z,70.57
2022-12-18T11:29:11.409Z,40.08
2022-12-18T11:33:28.615Z,39.33
2022-12-18T11:37:58.799Z,35.22
2022-12-18T11:42:42.754Z,39.60
2022-12-18T11:47:32.549Z,43.63
2022-12-18T11:52:14.821Z,80.05
2022-12-18T11:56:49.227Z,34.15
2022-12-18T12:01:44.849Z,32.35
2022-12-18T12:06:11.741Z,30.45
2022-12-18T12:11:07.980Z,30.48
2022-12-18T12:16:14.007Z,41.38
2022-12-18T12:20:53.823Z,29.00
2022-12-18T12:25:33.082Z,31.02
2022-12-18T12:30:10.412Z,40.40
2022-12-18T12:34:57.657Z,48.40
2022-12-18T12:39:23.748Z,30.08
2022-12-18T12:43:50.790Z,28.27
2022-12-18T12:48:23.679Z,35.28
2022-12-18T12:52:48.640Z,31.63
2022-12-18T12:57:28.467Z,27.10
2022-12-18T13:02:21.146Z,32.35
2022-12-18T13:06:59.803Z,29.35
2022-12-18T13:12:10.297Z,42.80
2022-12-18T13:16:28.666Z,26.33
2022-12-18T13:20:55.202Z,38.17
2022-12-18T13:25:36.642Z,35.33
2022-12-18T13:34:28.420Z,25.77
2022-12-18T13:38:46.441Z,29.80
2022-12-18T13:43:21.146Z,26.40
2022-12-18T13:47:39.320Z,34.15
2022-12-18T13:51:57.260Z,38.60
2022-12-18T13:56:22.207Z,34.03
2022-12-18T14:00:43.910Z,45.35
2022-12-18T14:05:00.961Z,69.35
2022-12-18T14:09:27.005Z,61.50
2022-12-18T14:13:44.797Z,99.85
2022-12-18T14:18:45.136Z,108.22
2022-12-18T14:23:02.903Z,89.35
2022-12-18T14:27:26.114Z,61.97
2022-12-18T14:31:42.960Z,53.97
2022-12-18T14:36:06.226Z,42.08
2022-12-18T14:40:23.105Z,41.92
2022-12-18T14:45:05.156Z,38.75
2022-12-18T14:49:35.952Z,49.15
2022-12-18T14:54:04.373Z,63.30
2022-12-18T14:58:21.480Z,65.23
2022-12-18T15:02:38.681Z,56.42
2022-12-18T15:07:25.145Z,55.60
2022-12-18T15:11:41.929Z,63.80
2022-12-18T15:16:04.223Z,68.38
2022-12-18T15:20:21.494Z,109.10
2022-12-18T15:24:38.503Z,73.07
2022-12-18T15:28:58.731Z,68.00
2022-12-18T15:33:27.077Z,73.70
2022-12-18T15:42:21.308Z,66.68
2022-12-18T15:46:38.433Z,69.93
2022-12-18T15:50:59.648Z,108.03
2022-12-18T15:55:39.613Z,91.72
2022-12-18T15:59:59.574Z,115.05
2022-12-18T16:04:21.656Z,112.88
2022-12-18T16:08:38.837Z,165.00
2022-12-18T16:17:15.821Z,154.85
2022-12-18T16:21:34.210Z,139.52
2022-12-18T16:25:51.955Z,143.68
2022-12-18T16:30:18.166Z,133.50
2022-12-18T16:34:36.281Z,159.75
2022-12-18T16:38:53.372Z,163.85
2022-12-18T16:43:10.200Z,164.82
2022-12-18T16:47:27.256Z,175.90
2022-12-18T16:51:46.519Z,142.93
2022-12-18T16:56:03.566Z,113.90
2022-12-18T17:04:38.786Z,133.63
2022-12-18T17:09:03.882Z,115.32
2022-12-18T17:13:25.525Z,78.47
2022-12-18T17:17:42.996Z,71.32
2022-12-18T17:22:00.113Z,73.18
2022-12-18T17:26:17.383Z,74.03
2022-12-18T17:30:34.233Z,71.75
2022-12-18T17:34:51.353Z,148.80
2022-12-18T17:39:08.582Z,68.97
2022-12-18T17:43:25.608Z,67.15
2022-12-18T17:47:42.414Z,57.90
2022-12-18T17:51:59.500Z,76.53
2022-12-18T17:56:20.094Z,75.05
2022-12-18T18:00:39.553Z,120.22
2022-12-18T18:04:56.382Z,106.68
2022-12-18T18:09:16.451Z,166.25
2022-12-18T18:14:30.968Z,136.02
2022-12-18T18:18:47.838Z,156.52
2022-12-18T18:23:05.006Z,198.43
2022-12-18T18:27:22.018Z,142.93
2022-12-18T18:31:41.082Z,90.03
2022-12-18T18:35:58.319Z,109.80
2022-12-18T18:40:15.488Z,58.28
2022-12-18T18:44:32.570Z,100.78
2022-12-18T18:48:49.869Z,104.93
2022-12-18T18:53:06.735Z,115.70
2022-12-18T18:57:28.718Z,97.00
2022-12-18T19:01:48.451Z,92.95
2022-12-18T19:06:07.696Z,87.10
2022-12-18T19:10:24.734Z,67.68
2022-12-18T19:14:42.208Z,97.68
2022-12-18T19:19:02.319Z,88.18
2022-12-18T19:23:20.199Z,123.32
2022-12-18T19:27:40.180Z,86.55
2022-12-18T19:31:57.309Z,100.05
2022-12-18T19:36:25.390Z,54.13
2022-12-18T19:40:44.463Z,132.15
2022-12-18T19:45:01.339Z,204.60
2022-12-18T19:49:18.614Z,182.95
2022-12-18T19:53:36.291Z,222.65
2022-12-18T19:57:53.382Z,107.37
2022-12-18T20:02:14.025Z,57.85
2022-12-18T20:06:35.638Z,54.22
2022-12-18T20:10:52.490Z,48.42
2022-12-18T20:15:10.612Z,59.35
2022-12-18T20:19:27.618Z,56.30
2022-12-18T20:23:45.076Z,41.67
2022-12-18T20:28:02.256Z,32.67
2022-12-18T20:32:19.404Z,48.85
2022-12-18T20:36:37.584Z,41.53
2022-12-18T20:40:55.941Z,44.65
2022-12-18T20:45:13.197Z,28.27
2022-12-18T20:49:30.712Z,27.77
2022-12-18T20:53:48.555Z,41.63
2022-12-18T20:58:05.626Z,41.08
2022-12-18T21:02:23.106Z,45.33
2022-12-18T21:06:40.068Z,38.33
2022-12-18T21:10:57.200Z,37.30
2022-12-18T21:15:14.138Z,34.97
2022-12-18T21:19:31.159Z,35.95
2022-12-18T21:23:48.301Z,33.17
2022-12-18T21:28:05.594Z,20.25
2022-12-18T21:32:23.607Z,27.90
2022-12-18T21:36:41.797Z,31.92
2022-12-18T21:40:59.189Z,33.25
2022-12-18T21:45:16.152Z,32.70
2022-12-18T21:49:33.845Z,30.00
2022-12-18T21:53:50.671Z,28.23
2022-12-18T21:58:08.493Z,28.27
2022-12-18T22:02:26.824Z,24.17
2022-12-18T22:11:01.581Z,25.63
2022-12-18T22:15:21.709Z,21.50
2022-12-18T22:19:43.107Z,24.30
2022-12-18T22:24:06.868Z,25.80
2022-12-18T22:28:42.988Z,163.07
2022-12-18T22:33:00.058Z,238.82
2022-12-18T22:37:16.938Z,308.45
2022-12-18T22:41:34.049Z,277.55
2022-12-18T22:45:50.910Z,286.25
2022-12-18T22:50:08.776Z,319.77
2022-12-18T22:54:25.642Z,226.13
2022-12-18T22:58:43.037Z,305.48
2022-12-18T23:03:01.143Z,323.00
2022-12-18T23:07:18.670Z,319.85
2022-12-18T23:11:35.523Z,389.02
2022-12-18T23:15:52.615Z,379.95
2022-12-18T23:20:10.189Z,370.85
2022-12-18T23:24:27.310Z,110.20
2022-12-18T23:28:46.165Z,153.82
2022-12-18T23:33:03.234Z,376.27
2022-12-18T23:37:49.877Z,324.35
2022-12-18T23:41:59.227Z,322.88
2022-12-18T23:46:36.075Z,222.57
2022-12-18T23:50:53.146Z,219.70
2022-12-18T23:55:10.115Z,230.35
2022-12-18T23:59:27.125Z,185.77
